sensor_id;sensor_type;location;lat;lon;timestamp;pressure;altitude;pressure_sealevel;temperature;humidity
38786;BME280;24535;45.508;12.252;2023-11-18T00:02:19;101852.16;;;10.92;60.45
38786;BME280;24535;45.508;12.252;2023-11-18T00:04:44;101857.34;;;10.94;60.23
38786;BME280;24535;45.508;12.252;2023-11-18T00:07:10;101850.31;;;10.94;60.05
38786;BME280;24535;45.508;12.252;2023-11-18T00:09:35;101850.47;;;10.91;59.99
38786;BME280;24535;45.508;12.252;2023-11-18T00:12:02;101851.47;;;10.88;59.88
38786;BME280;24535;45.508;12.252;2023-11-18T00:14:29;101847.97;;;10.88;60.60
38786;BME280;24535;45.508;12.252;2023-11-18T00:16:54;101846.28;;;10.87;60.08
38786;BME280;24535;45.508;12.252;2023-11-18T00:19:20;101848.06;;;10.86;59.82
38786;BME280;24535;45.508;12.252;2023-11-18T00:21:45;101842.00;;;10.84;59.83
38786;BME280;24535;45.508;12.252;2023-11-18T00:24:11;101843.03;;;10.82;59.88
38786;BME280;24535;45.508;12.252;2023-11-18T00:26:36;101843.06;;;10.80;60.33
38786;BME280;24535;45.508;12.252;2023-11-18T00:29:02;101842.31;;;10.78;59.60
38786;BME280;24535;45.508;12.252;2023-11-18T00:31:27;101839.75;;;10.77;59.70
38786;BME280;24535;45.508;12.252;2023-11-18T00:33:53;101852.16;;;10.75;59.79
38786;BME280;24535;45.508;12.252;2023-11-18T00:36:18;101855.78;;;10.72;59.79
38786;BME280;24535;45.508;12.252;2023-11-18T00:38:44;101855.09;;;10.69;59.60
38786;BME280;24535;45.508;12.252;2023-11-18T00:41:09;101861.38;;;10.66;59.94
38786;BME280;24535;45.508;12.252;2023-11-18T00:43:35;101863.00;;;10.69;60.03
38786;BME280;24535;45.508;12.252;2023-11-18T00:46:00;101856.88;;;10.68;60.11
38786;BME280;24535;45.508;12.252;2023-11-18T00:48:26;101858.66;;;10.68;60.19
38786;BME280;24535;45.508;12.252;2023-11-18T00:50:52;101860.53;;;10.66;59.85
38786;BME280;24535;45.508;12.252;2023-11-18T00:53:17;101867.56;;;10.65;60.16
38786;BME280;24535;45.508;12.252;2023-11-18T00:55:43;101867.34;;;10.70;60.24
38786;BME280;24535;45.508;12.252;2023-11-18T00:58:09;101863.00;;;10.69;60.20
38786;BME280;24535;45.508;12.252;2023-11-18T01:00:34;101876.16;;;10.69;59.89
38786;BME280;24535;45.508;12.252;2023-11-18T01:03:01;101864.84;;;10.67;59.99
38786;BME280;24535;45.508;12.252;2023-11-18T01:05:27;101865.78;;;10.66;60.10
38786;BME280;24535;45.508;12.252;2023-11-18T01:07:52;101866.66;;;10.66;60.16
38786;BME280;24535;45.508;12.252;2023-11-18T01:10:18;101879.13;;;10.62;60.01
38786;BME280;24535;45.508;12.252;2023-11-18T01:12:44;101875.69;;;10.60;59.81
38786;BME280;24535;45.508;12.252;2023-11-18T01:15:10;101878.50;;;10.57;59.76
38786;BME280;24535;45.508;12.252;2023-11-18T01:17:36;101882.97;;;10.55;60.08
38786;BME280;24535;45.508;12.252;2023-11-18T01:20:02;101884.19;;;10.48;59.99
38786;BME280;24535;45.508;12.252;2023-11-18T01:22:33;101886.91;;;10.47;59.83
38786;BME280;24535;45.508;12.252;2023-11-18T01:25:00;101896.44;;;10.49;60.36
38786;BME280;24535;45.508;12.252;2023-11-18T01:27:26;101899.84;;;10.51;60.10
38786;BME280;24535;45.508;12.252;2023-11-18T01:29:52;101901.72;;;10.49;59.58
38786;BME280;24535;45.508;12.252;2023-11-18T01:32:18;101900.06;;;10.47;59.22
38786;BME280;24535;45.508;12.252;2023-11-18T01:34:44;101906.47;;;10.41;59.34
38786;BME280;24535;45.508;12.252;2023-11-18T01:37:15;101912.03;;;10.35;59.86
38786;BME280;24535;45.508;12.252;2023-11-18T01:39:41;101913.88;;;10.33;59.21
38786;BME280;24535;45.508;12.252;2023-11-18T01:42:06;101913.09;;;10.31;59.37
38786;BME280;24535;45.508;12.252;2023-11-18T01:44:32;101919.38;;;10.28;59.05
38786;BME280;24535;45.508;12.252;2023-11-18T01:46:59;101924.56;;;10.30;59.67
38786;BME280;24535;45.508;12.252;2023-11-18T01:49:28;101923.88;;;10.26;59.22
38786;BME280;24535;45.508;12.252;2023-11-18T01:51:54;101921.22;;;10.26;59.47
38786;BME280;24535;45.508;12.252;2023-11-18T01:54:21;101935.16;;;10.28;59.86
38786;BME280;24535;45.508;12.252;2023-11-18T01:56:48;101942.00;;;10.32;59.84
38786;BME280;24535;45.508;12.252;2023-11-18T01:59:15;101942.72;;;10.36;59.83
38786;BME280;24535;45.508;12.252;2023-11-18T02:01:48;101932.97;;;10.38;59.87
38786;BME280;24535;45.508;12.252;2023-11-18T02:04:15;101936.59;;;10.35;59.26
38786;BME280;24535;45.508;12.252;2023-11-18T02:06:44;101946.28;;;10.35;59.28
38786;BME280;24535;45.508;12.252;2023-11-18T02:09:11;101934.94;;;10.33;59.43
38786;BME280;24535;45.508;12.252;2023-11-18T02:11:40;101941.28;;;10.29;59.39
38786;BME280;24535;45.508;12.252;2023-11-18T02:14:09;101944.97;;;10.25;59.09
38786;BME280;24535;45.508;12.252;2023-11-18T02:16:40;101947.63;;;10.25;59.15
38786;BME280;24535;45.508;12.252;2023-11-18T02:19:24;101952.00;;;10.24;59.51
38786;BME280;24535;45.508;12.252;2023-11-18T02:21:52;101952.94;;;10.23;59.28
38786;BME280;24535;45.508;12.252;2023-11-18T02:24:30;101953.91;;;10.21;59.42
38786;BME280;24535;45.508;12.252;2023-11-18T02:27:00;101951.28;;;10.21;59.54
38786;BME280;24535;45.508;12.252;2023-11-18T02:29:27;101952.09;;;10.23;59.24
38786;BME280;24535;45.508;12.252;2023-11-18T02:31:59;101959.19;;;10.21;59.28
38786;BME280;24535;45.508;12.252;2023-11-18T02:34:30;101959.91;;;10.24;59.42
38786;BME280;24535;45.508;12.252;2023-11-18T02:36:58;101959.13;;;10.22;58.88
38786;BME280;24535;45.508;12.252;2023-11-18T02:39:36;101952.22;;;10.20;58.33
38786;BME280;24535;45.508;12.252;2023-11-18T02:42:04;101950.78;;;10.12;58.55
38786;BME280;24535;45.508;12.252;2023-11-18T02:44:34;101961.47;;;10.09;58.76
38786;BME280;24535;45.508;12.252;2023-11-18T02:47:00;101966.56;;;10.12;59.43
38786;BME280;24535;45.508;12.252;2023-11-18T02:49:26;101968.16;;;10.16;59.40
38786;BME280;24535;45.508;12.252;2023-11-18T02:51:53;101968.94;;;10.19;59.23
38786;BME280;24535;45.508;12.252;2023-11-18T02:54:18;101975.16;;;10.18;58.75
38786;BME280;24535;45.508;12.252;2023-11-18T02:56:45;101973.56;;;10.13;58.80
38786;BME280;24535;45.508;12.252;2023-11-18T02:59:11;101963.03;;;10.13;59.10
38786;BME280;24535;45.508;12.252;2023-11-18T03:01:36;101969.28;;;10.11;59.29
38786;BME280;24535;45.508;12.252;2023-11-18T03:04:04;101967.59;;;10.10;59.53
38786;BME280;24535;45.508;12.252;2023-11-18T03:06:31;101969.72;;;10.21;59.81
38786;BME280;24535;45.508;12.252;2023-11-18T03:08:58;101954.94;;;10.18;59.15
38786;BME280;24535;45.508;12.252;2023-11-18T03:11:23;101962.97;;;10.15;58.65
38786;BME280;24535;45.508;12.252;2023-11-18T03:13:49;101968.16;;;10.16;59.37
38786;BME280;24535;45.508;12.252;2023-11-18T03:16:14;101969.88;;;10.18;59.17
38786;BME280;24535;45.508;12.252;2023-11-18T03:18:41;101974.28;;;10.17;58.94
38786;BME280;24535;45.508;12.252;2023-11-18T03:21:14;101984.22;;;10.10;58.73
38786;BME280;24535;45.508;12.252;2023-11-18T03:23:40;101984.50;;;10.04;58.67
38786;BME280;24535;45.508;12.252;2023-11-18T03:26:06;101983.63;;;10.04;58.92
38786;BME280;24535;45.508;12.252;2023-11-18T03:28:32;101992.59;;;10.00;58.49
38786;BME280;24535;45.508;12.252;2023-11-18T03:30:57;101998.88;;;9.97;58.72
38786;BME280;24535;45.508;12.252;2023-11-18T03:33:24;102002.41;;;9.96;58.59
38786;BME280;24535;45.508;12.252;2023-11-18T03:35:49;102014.00;;;9.92;58.64
38786;BME280;24535;45.508;12.252;2023-11-18T03:38:15;102007.09;;;9.89;58.49
38786;BME280;24535;45.508;12.252;2023-11-18T03:40:43;102000.31;;;9.84;58.71
38786;BME280;24535;45.508;12.252;2023-11-18T03:43:10;102009.22;;;9.81;58.49
38786;BME280;24535;45.508;12.252;2023-11-18T03:45:38;102017.09;;;9.81;59.13
38786;BME280;24535;45.508;12.252;2023-11-18T03:48:04;102013.47;;;9.84;59.30
38786;BME280;24535;45.508;12.252;2023-11-18T03:50:29;102013.66;;;9.79;58.43
38786;BME280;24535;45.508;12.252;2023-11-18T03:52:55;102013.63;;;9.81;58.77
38786;BME280;24535;45.508;12.252;2023-11-18T03:55:20;102018.94;;;9.79;58.70
38786;BME280;24535;45.508;12.252;2023-11-18T03:57:46;102021.63;;;9.78;58.58
38786;BME280;24535;45.508;12.252;2023-11-18T04:00:15;102015.72;;;9.73;58.56
38786;BME280;24535;45.508;12.252;2023-11-18T04:02:41;102016.81;;;9.67;58.96
38786;BME280;24535;45.508;12.252;2023-11-18T04:05:06;102028.94;;;9.71;59.27
38786;BME280;24535;45.508;12.252;2023-11-18T04:07:33;102023.47;;;9.76;58.96
38786;BME280;24535;45.508;12.252;2023-11-18T04:09:59;102029.78;;;9.72;58.46
38786;BME280;24535;45.508;12.252;2023-11-18T04:12:25;102024.78;;;9.65;58.11
38786;BME280;24535;45.508;12.252;2023-11-18T04:14:52;102026.94;;;9.56;58.02
38786;BME280;24535;45.508;12.252;2023-11-18T04:17:17;102023.66;;;9.51;57.95
38786;BME280;24535;45.508;12.252;2023-11-18T04:19:43;102039.63;;;9.46;58.34
38786;BME280;24535;45.508;12.252;2023-11-18T04:22:08;102043.31;;;9.42;58.89
38786;BME280;24535;45.508;12.252;2023-11-18T04:24:34;102049.50;;;9.41;58.60
38786;BME280;24535;45.508;12.252;2023-11-18T04:27:00;102052.34;;;9.35;58.22
38786;BME280;24535;45.508;12.252;2023-11-18T04:29:26;102063.72;;;9.35;58.85
38786;BME280;24535;45.508;12.252;2023-11-18T04:31:52;102071.75;;;9.32;58.44
38786;BME280;24535;45.508;12.252;2023-11-18T04:34:18;102071.81;;;9.31;58.42
38786;BME280;24535;45.508;12.252;2023-11-18T04:36:44;102071.88;;;9.29;58.59
38786;BME280;24535;45.508;12.252;2023-11-18T04:39:09;102072.91;;;9.25;58.78
38786;BME280;24535;45.508;12.252;2023-11-18T04:41:37;102081.72;;;9.24;58.42
38786;BME280;24535;45.508;12.252;2023-11-18T04:44:03;102073.88;;;9.23;58.55
38786;BME280;24535;45.508;12.252;2023-11-18T04:46:28;102079.22;;;9.21;59.08
38786;BME280;24535;45.508;12.252;2023-11-18T04:48:54;102079.28;;;9.20;58.71
38786;BME280;24535;45.508;12.252;2023-11-18T04:51:20;102089.91;;;9.16;58.77
38786;BME280;24535;45.508;12.252;2023-11-18T04:53:47;102082.94;;;9.15;58.87
38786;BME280;24535;45.508;12.252;2023-11-18T04:56:13;102088.34;;;9.11;58.42
38786;BME280;24535;45.508;12.252;2023-11-18T04:58:41;102085.00;;;9.07;58.90
38786;BME280;24535;45.508;12.252;2023-11-18T05:01:08;102089.41;;;9.07;59.19
38786;BME280;24535;45.508;12.252;2023-11-18T05:03:34;102083.34;;;9.05;59.08
38786;BME280;24535;45.508;12.252;2023-11-18T05:06:00;102081.69;;;9.02;59.35
38786;BME280;24535;45.508;12.252;2023-11-18T05:08:25;102078.41;;;8.97;58.28
38786;BME280;24535;45.508;12.252;2023-11-18T05:10:51;102080.22;;;8.95;58.47
38786;BME280;24535;45.508;12.252;2023-11-18T05:13:16;102090.88;;;8.92;59.09
38786;BME280;24535;45.508;12.252;2023-11-18T05:15:46;102083.00;;;8.90;58.80
38786;BME280;24535;45.508;12.252;2023-11-18T05:18:12;102076.91;;;8.90;58.93
38786;BME280;24535;45.508;12.252;2023-11-18T05:20:40;102073.44;;;8.89;58.91
38786;BME280;24535;45.508;12.252;2023-11-18T05:23:06;102068.28;;;8.86;59.11
38786;BME280;24535;45.508;12.252;2023-11-18T05:25:33;102063.94;;;8.85;58.83
38786;BME280;24535;45.508;12.252;2023-11-18T05:27:59;102070.06;;;8.86;58.51
38786;BME280;24535;45.508;12.252;2023-11-18T05:30:25;102076.22;;;8.85;58.83
38786;BME280;24535;45.508;12.252;2023-11-18T05:32:51;102079.44;;;8.93;59.26
38786;BME280;24535;45.508;12.252;2023-11-18T05:35:17;102079.13;;;9.01;58.87
38786;BME280;24535;45.508;12.252;2023-11-18T05:37:42;102078.41;;;8.97;58.42
38786;BME280;24535;45.508;12.252;2023-11-18T05:40:09;102092.63;;;8.91;58.68
38786;BME280;24535;45.508;12.252;2023-11-18T05:42:37;102093.66;;;8.87;58.49
38786;BME280;24535;45.508;12.252;2023-11-18T05:45:06;102086.00;;;8.81;57.90
38786;BME280;24535;45.508;12.252;2023-11-18T05:47:33;102076.63;;;8.74;58.47
38786;BME280;24535;45.508;12.252;2023-11-18T05:50:00;102088.16;;;8.70;58.36
38786;BME280;24535;45.508;12.252;2023-11-18T05:52:25;102096.22;;;8.65;58.64
38786;BME280;24535;45.508;12.252;2023-11-18T05:54:51;102082.47;;;8.59;58.68
38786;BME280;24535;45.508;12.252;2023-11-18T05:57:17;102098.25;;;8.59;58.65
38786;BME280;24535;45.508;12.252;2023-11-18T05:59:43;102098.25;;;8.59;58.61
38786;BME280;24535;45.508;12.252;2023-11-18T06:02:09;102099.19;;;8.56;58.26
38786;BME280;24535;45.508;12.252;2023-11-18T06:04:42;102111.56;;;8.53;58.36
38786;BME280;24535;45.508;12.252;2023-11-18T06:07:08;102111.50;;;8.54;58.32
38786;BME280;24535;45.508;12.252;2023-11-18T06:09:33;102128.19;;;8.53;58.26
38786;BME280;24535;45.508;12.252;2023-11-18T06:11:59;102122.75;;;8.58;59.02
38786;BME280;24535;45.508;12.252;2023-11-18T06:14:26;102133.16;;;8.61;58.39
38786;BME280;24535;45.508;12.252;2023-11-18T06:16:52;102135.03;;;8.57;58.54
38786;BME280;24535;45.508;12.252;2023-11-18T06:19:17;102137.75;;;8.56;58.77
38786;BME280;24535;45.508;12.252;2023-11-18T06:21:43;102138.66;;;8.55;58.40
38786;BME280;24535;45.508;12.252;2023-11-18T06:24:08;102143.84;;;8.56;59.00
38786;BME280;24535;45.508;12.252;2023-11-18T06:26:36;102145.66;;;8.54;59.06
38786;BME280;24535;45.508;12.252;2023-11-18T06:29:02;102143.91;;;8.55;58.66
38786;BME280;24535;45.508;12.252;2023-11-18T06:31:29;102149.94;;;8.57;58.69
38786;BME280;24535;45.508;12.252;2023-11-18T06:33:55;102153.41;;;8.59;58.81
38786;BME280;24535;45.508;12.252;2023-11-18T06:36:21;102144.44;;;8.64;58.38
38786;BME280;24535;45.508;12.252;2023-11-18T06:38:49;102140.88;;;8.65;58.65
38786;BME280;24535;45.508;12.252;2023-11-18T06:41:21;102146.88;;;8.69;58.70
38786;BME280;24535;45.508;12.252;2023-11-18T06:43:51;102153.75;;;8.73;58.53
38786;BME280;24535;45.508;12.252;2023-11-18T06:46:27;102142.28;;;8.76;58.05
38786;BME280;24535;45.508;12.252;2023-11-18T06:48:57;102152.66;;;8.79;58.68
38786;BME280;24535;45.508;12.252;2023-11-18T06:51:25;102152.53;;;8.82;58.19
38786;BME280;24535;45.508;12.252;2023-11-18T06:53:53;102162.03;;;8.86;58.26
38786;BME280;24535;45.508;12.252;2023-11-18T06:56:20;102162.84;;;8.88;58.84
38786;BME280;24535;45.508;12.252;2023-11-18T06:58:46;102149.53;;;8.93;58.90
38786;BME280;24535;45.508;12.252;2023-11-18T07:01:15;102146.78;;;8.96;58.37
38786;BME280;24535;45.508;12.252;2023-11-18T07:03:42;102157.13;;;9.00;58.43
38786;BME280;24535;45.508;12.252;2023-11-18T07:06:08;102160.44;;;9.05;58.65
38786;BME280;24535;45.508;12.252;2023-11-18T07:08:35;102179.59;;;9.09;58.23
38786;BME280;24535;45.508;12.252;2023-11-18T07:11:02;102177.81;;;9.09;58.45
38786;BME280;24535;45.508;12.252;2023-11-18T07:13:29;102183.06;;;9.09;58.61
38786;BME280;24535;45.508;12.252;2023-11-18T07:15:54;102185.59;;;9.12;58.84
38786;BME280;24535;45.508;12.252;2023-11-18T07:18:22;102188.97;;;9.16;58.22
38786;BME280;24535;45.508;12.252;2023-11-18T07:20:48;102191.59;;;9.16;58.75
38786;BME280;24535;45.508;12.252;2023-11-18T07:23:16;102195.84;;;9.19;58.75
38786;BME280;24535;45.508;12.252;2023-11-18T07:25:43;102196.66;;;9.21;58.85
38786;BME280;24535;45.508;12.252;2023-11-18T07:28:09;102188.69;;;9.24;58.42
38786;BME280;24535;45.508;12.252;2023-11-18T07:30:34;102189.47;;;9.26;58.53
38786;BME280;24535;45.508;12.252;2023-11-18T07:33:02;102184.84;;;9.32;58.34
38786;BME280;24535;45.508;12.252;2023-11-18T07:35:28;102181.09;;;9.38;58.59
38786;BME280;24535;45.508;12.252;2023-11-18T07:37:55;102193.22;;;9.42;58.49
38786;BME280;24535;45.508;12.252;2023-11-18T07:40:20;102190.41;;;9.47;58.90
38786;BME280;24535;45.508;12.252;2023-11-18T07:42:54;102187.66;;;9.50;58.92
38786;BME280;24535;45.508;12.252;2023-11-18T07:45:21;102196.19;;;9.56;58.56
38786;BME280;24535;45.508;12.252;2023-11-18T07:47:49;102179.34;;;9.60;58.72
38786;BME280;24535;45.508;12.252;2023-11-18T07:50:18;102183.59;;;9.64;58.99
38786;BME280;24535;45.508;12.252;2023-11-18T07:52:46;102189.44;;;9.71;58.54
38786;BME280;24535;45.508;12.252;2023-11-18T07:55:13;102187.53;;;9.75;58.63
38786;BME280;24535;45.508;12.252;2023-11-18T07:57:39;102180.31;;;9.80;58.74
38786;BME280;24535;45.508;12.252;2023-11-18T08:00:05;102177.44;;;9.86;58.68
38786;BME280;24535;45.508;12.252;2023-11-18T08:02:37;102177.13;;;9.94;58.62
38786;BME280;24535;45.508;12.252;2023-11-18T08:05:03;102183.59;;;10.07;58.70
38786;BME280;24535;45.508;12.252;2023-11-18T08:07:35;102178.69;;;10.20;58.69
38786;BME280;24535;45.508;12.252;2023-11-18T08:10:02;102186.03;;;10.33;58.21
38786;BME280;24535;45.508;12.252;2023-11-18T08:12:30;102178.66;;;10.42;57.97
38786;BME280;24535;45.508;12.252;2023-11-18T08:14:56;102181.97;;;10.47;57.77
38786;BME280;24535;45.508;12.252;2023-11-18T08:17:23;102185.03;;;10.56;57.54
38786;BME280;24535;45.508;12.252;2023-11-18T08:19:50;102190.81;;;10.64;57.55
38786;BME280;24535;45.508;12.252;2023-11-18T08:22:17;102187.84;;;10.72;57.47
38786;BME280;24535;45.508;12.252;2023-11-18T08:24:44;102200.78;;;10.78;57.23
38786;BME280;24535;45.508;12.252;2023-11-18T08:27:09;102199.66;;;10.84;57.02
38786;BME280;24535;45.508;12.252;2023-11-18T08:29:36;102195.00;;;10.89;57.32
38786;BME280;24535;45.508;12.252;2023-11-18T08:32:03;102203.53;;;10.96;56.70
38786;BME280;24535;45.508;12.252;2023-11-18T08:34:29;102209.31;;;11.04;57.29
38786;BME280;24535;45.508;12.252;2023-11-18T08:36:54;102209.72;;;11.13;56.83
38786;BME280;24535;45.508;12.252;2023-11-18T08:39:19;102208.53;;;11.21;57.24
38786;BME280;24535;45.508;12.252;2023-11-18T08:41:48;102212.59;;;11.28;56.75
38786;BME280;24535;45.508;12.252;2023-11-18T08:44:16;102213.88;;;11.38;56.41
38786;BME280;24535;45.508;12.252;2023-11-18T08:46:43;102212.44;;;11.50;56.52
38786;BME280;24535;45.508;12.252;2023-11-18T08:49:08;102207.31;;;11.66;56.81
38786;BME280;24535;45.508;12.252;2023-11-18T08:51:42;102199.31;;;11.86;57.10
38786;BME280;24535;45.508;12.252;2023-11-18T08:54:08;102194.97;;;12.02;56.83
38786;BME280;24535;45.508;12.252;2023-11-18T08:56:53;102199.41;;;12.19;56.65
38786;BME280;24535;45.508;12.252;2023-11-18T08:59:20;102200.53;;;12.32;55.33
38786;BME280;24535;45.508;12.252;2023-11-18T09:01:53;102190.44;;;12.41;55.80
38786;BME280;24535;45.508;12.252;2023-11-18T09:04:27;102190.94;;;12.47;54.56
38786;BME280;24535;45.508;12.252;2023-11-18T09:06:53;102191.66;;;12.51;55.56
38786;BME280;24535;45.508;12.252;2023-11-18T09:09:22;102198.50;;;12.55;54.64
38786;BME280;24535;45.508;12.252;2023-11-18T09:11:58;102193.84;;;12.60;54.47
38786;BME280;24535;45.508;12.252;2023-11-18T09:14:25;102196.84;;;12.70;55.12
38786;BME280;24535;45.508;12.252;2023-11-18T09:16:52;102190.31;;;12.77;54.73
38786;BME280;24535;45.508;12.252;2023-11-18T09:19:20;102196.81;;;12.87;55.43
38786;BME280;24535;45.508;12.252;2023-11-18T09:21:46;102209.38;;;12.99;54.38
38786;BME280;24535;45.508;12.252;2023-11-18T09:24:12;102204.28;;;13.12;55.46
38786;BME280;24535;45.508;12.252;2023-11-18T09:26:38;102205.50;;;13.22;53.97
38786;BME280;24535;45.508;12.252;2023-11-18T09:29:05;102207.78;;;13.30;54.53
38786;BME280;24535;45.508;12.252;2023-11-18T09:31:34;102206.50;;;13.37;54.42
38786;BME280;24535;45.508;12.252;2023-11-18T09:34:00;102200.84;;;13.43;53.96
38786;BME280;24535;45.508;12.252;2023-11-18T09:36:26;102200.44;;;13.51;54.45
38786;BME280;24535;45.508;12.252;2023-11-18T09:38:54;102206.16;;;13.59;53.94
38786;BME280;24535;45.508;12.252;2023-11-18T09:41:22;102209.22;;;13.67;54.18
38786;BME280;24535;45.508;12.252;2023-11-18T09:43:49;102207.94;;;13.74;53.49
38786;BME280;24535;45.508;12.252;2023-11-18T09:46:28;102204.03;;;13.81;52.67
38786;BME280;24535;45.508;12.252;2023-11-18T09:51:29;102197.91;;;13.95;53.15
38786;BME280;24535;45.508;12.252;2023-11-18T09:54:05;102201.81;;;14.04;53.88
38786;BME280;24535;45.508;12.252;2023-11-18T09:56:49;102203.03;;;14.14;53.14
38786;BME280;24535;45.508;12.252;2023-11-18T09:59:49;102205.59;;;14.30;52.18
38786;BME280;24535;45.508;12.252;2023-11-18T10:02:20;102208.47;;;14.41;52.98
38786;BME280;24535;45.508;12.252;2023-11-18T10:04:49;102215.06;;;14.50;52.64
38786;BME280;24535;45.508;12.252;2023-11-18T10:07:23;102219.72;;;14.61;52.66
38786;BME280;24535;45.508;12.252;2023-11-18T10:09:54;102214.72;;;14.70;51.66
38786;BME280;24535;45.508;12.252;2023-11-18T10:12:23;102202.72;;;14.79;52.17
38786;BME280;24535;45.508;12.252;2023-11-18T10:14:49;102200.22;;;14.90;52.44
38786;BME280;24535;45.508;12.252;2023-11-18T10:17:17;102194.38;;;14.99;51.84
38786;BME280;24535;45.508;12.252;2023-11-18T10:19:57;102191.13;;;15.08;50.62
38786;BME280;24535;45.508;12.252;2023-11-18T10:24:51;102191.88;;;15.25;51.75
38786;BME280;24535;45.508;12.252;2023-11-18T10:27:23;102190.63;;;15.30;51.94
38786;BME280;24535;45.508;12.252;2023-11-18T10:29:50;102196.41;;;15.37;51.73
38786;BME280;24535;45.508;12.252;2023-11-18T10:32:20;102192.50;;;15.43;51.12
38786;BME280;24535;45.508;12.252;2023-11-18T10:34:48;102191.28;;;15.48;51.12
38786;BME280;24535;45.508;12.252;2023-11-18T10:37:16;102190.00;;;15.54;51.23
38786;BME280;24535;45.508;12.252;2023-11-18T10:39:47;102194.06;;;15.59;51.07
38786;BME280;24535;45.508;12.252;2023-11-18T10:42:16;102188.47;;;15.64;51.42
38786;BME280;24535;45.508;12.252;2023-11-18T10:44:56;102181.94;;;15.70;50.81
38786;BME280;24535;45.508;12.252;2023-11-18T10:47:28;102191.31;;;15.75;50.74
38786;BME280;24535;45.508;12.252;2023-11-18T10:49:57;102189.31;;;15.79;50.85
38786;BME280;24535;45.508;12.252;2023-11-18T10:52:23;102188.06;;;15.85;51.04
38786;BME280;24535;45.508;12.252;2023-11-18T10:54:51;102172.78;;;15.88;51.62
38786;BME280;24535;45.508;12.252;2023-11-18T10:57:20;102168.84;;;15.94;51.29
38786;BME280;24535;45.508;12.252;2023-11-18T11:00:02;102165.22;;;15.95;50.36
38786;BME280;24535;45.508;12.252;2023-11-18T11:02:41;102169.56;;;15.96;50.93
38786;BME280;24535;45.508;12.252;2023-11-18T11:05:27;102176.50;;;15.98;50.30
38786;BME280;24535;45.508;12.252;2023-11-18T11:07:58;102176.38;;;16.00;51.29
38786;BME280;24535;45.508;12.252;2023-11-18T11:10:24;102181.72;;;16.00;51.26
38786;BME280;24535;45.508;12.252;2023-11-18T11:12:54;102188.63;;;16.02;51.20
38786;BME280;24535;45.508;12.252;2023-11-18T11:15:29;102196.50;;;16.04;50.14
38786;BME280;24535;45.508;12.252;2023-11-18T11:18:04;102200.03;;;16.04;50.17
38786;BME280;24535;45.508;12.252;2023-11-18T11:20:38;102201.72;;;16.05;50.39
38786;BME280;24535;45.508;12.252;2023-11-18T11:23:21;102195.47;;;16.06;50.06
38786;BME280;24535;45.508;12.252;2023-11-18T11:28:30;102187.47;;;16.06;50.57
38786;BME280;24535;45.508;12.252;2023-11-18T11:31:12;102190.03;;;16.08;49.87
38786;BME280;24535;45.508;12.252;2023-11-18T11:33:52;102184.63;;;16.10;50.13
38786;BME280;24535;45.508;12.252;2023-11-18T11:36:28;102187.16;;;16.11;50.28
38786;BME280;24535;45.508;12.252;2023-11-18T11:38:57;102186.19;;;16.12;50.47
38786;BME280;24535;45.508;12.252;2023-11-18T11:41:23;102181.78;;;16.13;50.49
38786;BME280;24535;45.508;12.252;2023-11-18T11:43:52;102180.81;;;16.14;50.55
38786;BME280;24535;45.508;12.252;2023-11-18T11:46:25;102186.84;;;16.16;50.62
38786;BME280;24535;45.508;12.252;2023-11-18T11:49:01;102182.38;;;16.16;50.63
38786;BME280;24535;45.508;12.252;2023-11-18T11:51:47;102183.16;;;16.18;50.24
38786;BME280;24535;45.508;12.252;2023-11-18T11:54:26;102188.47;;;16.18;50.32
38786;BME280;24535;45.508;12.252;2023-11-18T11:56:56;102199.00;;;16.20;49.86
38786;BME280;24535;45.508;12.252;2023-11-18T12:02:15;102192.09;;;16.17;50.07
38786;BME280;24535;45.508;12.252;2023-11-18T12:04:53;102188.59;;;16.17;50.13
38786;BME280;24535;45.508;12.252;2023-11-18T12:07:20;102182.31;;;16.18;50.27
38786;BME280;24535;45.508;12.252;2023-11-18T12:09:49;102176.22;;;16.16;50.16
38786;BME280;24535;45.508;12.252;2023-11-18T12:12:20;102174.31;;;16.18;50.13
38786;BME280;24535;45.508;12.252;2023-11-18T12:14:50;102174.31;;;16.18;49.77
38786;BME280;24535;45.508;12.252;2023-11-18T12:17:17;102175.38;;;16.15;50.35
38786;BME280;24535;45.508;12.252;2023-11-18T12:19:49;102173.69;;;16.14;50.24
38786;BME280;24535;45.508;12.252;2023-11-18T12:22:25;102173.78;;;16.13;50.28
38786;BME280;24535;45.508;12.252;2023-11-18T12:33:02;102189.19;;;16.07;49.41
38786;BME280;24535;45.508;12.252;2023-11-18T12:41:20;102182.16;;;16.06;50.17
38786;BME280;24535;45.508;12.252;2023-11-18T12:44:15;102179.50;;;16.06;48.70
38786;BME280;24535;45.508;12.252;2023-11-18T12:46:53;102182.16;;;16.06;49.54
38786;BME280;24535;45.508;12.252;2023-11-18T12:49:20;102180.47;;;16.05;49.37
38786;BME280;24535;45.508;12.252;2023-11-18T12:51:52;102182.16;;;16.06;49.89
38786;BME280;24535;45.508;12.252;2023-11-18T12:54:26;102171.53;;;16.06;49.18
38786;BME280;24535;45.508;12.252;2023-11-18T12:56:55;102164.53;;;16.05;49.16
38786;BME280;24535;45.508;12.252;2023-11-18T12:59:21;102164.59;;;16.04;48.80
38786;BME280;24535;45.508;12.252;2023-11-18T13:01:47;102167.19;;;16.05;47.83
38786;BME280;24535;45.508;12.252;2023-11-18T13:04:24;102168.88;;;16.06;47.88
38786;BME280;24535;45.508;12.252;2023-11-18T13:06:51;102172.38;;;16.07;47.88
38786;BME280;24535;45.508;12.252;2023-11-18T13:09:17;102170.47;;;16.09;47.92
38786;BME280;24535;45.508;12.252;2023-11-18T13:11:56;102170.38;;;16.11;48.63
38786;BME280;24535;45.508;12.252;2023-11-18T13:14:27;102161.53;;;16.10;48.93